Data for 08/15/2014

Time Sea-Level Adjusted Pressure Absolute Pressure Temperature Relative Humidity Dew Point   
(mb) (inHg) (mb) (inHg) (C) (F) (%) (C) (F)
00:05 1020 30.12 849 25.07 14.9 58.9 74 10.3 50.6
00:10 1020 30.12 849 25.07 15.1 59.2 72 10.1 50.2
00:15 1020 30.12 849 25.07 15.4 59.8 68 9.6 49.2
00:20 1020 30.12 849 25.07 15.9 60.7 66 9.6 49.3
00:25 1020 30.12 849 25.07 16 60.9 66 9.7 49.4
00:30 1020 30.12 849 25.07 16 60.7 66 9.6 49.3
00:35 1020 30.12 849 25.07 15.9 60.7 65 9.5 49.1
00:40 1020 30.12 849 25.07 15.9 60.6 68 10 50.1
00:45 1020 30.12 849 25.07 15.4 59.8 68 9.6 49.3
00:50 1020 30.12 849 25.07 15.3 59.6 69 9.7 49.5
00:55 1020 30.12 849 25.07 15.3 59.5 68 9.6 49.2
01:00 1020 30.12 849 25.07 15.4 59.6 69 9.8 49.7
01:05 1020 30.12 849 25.07 15.2 59.4 71 10 50
01:10 1020 30.12 849 25.07 14.9 58.9 71 9.7 49.5
01:15 1020 30.12 849 25.07 15 58.9 73 10.1 50.3
01:20 1020 30.12 849 25.07 15 59 70 9.5 49.1
01:25 1020 30.12 849 25.07 15.2 59.3 68 9.3 48.8
01:30 1020 30.12 849 25.07 15.6 60 66 9.2 48.6
01:35 1020 30.12 849 25.07 15.8 60.5 64 9.2 48.5
01:40 1020 30.12 849 25.07 16 60.7 64 9.3 48.7
01:45 1020 30.12 849 25.07 16 60.7 65 9.4 48.9
01:50 1020 30.12 849 25.07 15.8 60.5 69 10.1 50.3
01:55 1020 30.12 849 25.07 15.7 60.3 68 10 50
02:00 1020 30.12 849 25.07 15.5 59.9 68 9.7 49.5
02:05 1020 30.12 849 25.07 15.1 59.2 69 9.5 49.1
02:10 1020 30.12 849 25.07 15 58.9 69 9.5 49
02:15 1020 30.12 849 25.07 14.9 58.8 69 9.3 48.8
02:20 1020 30.12 849 25.07 15 59.1 70 9.6 49.2
02:25 1020 30.12 849 25.07 14.9 58.8 71 9.7 49.5
02:30 1020 30.12 849 25.07 14.9 58.8 72 9.9 49.9
02:35 1020 30.12 849 25.07 15.2 59.3 70 9.8 49.6
02:40 1020 30.12 849 25.07 15.4 59.8 68 9.7 49.4
02:45 1020 30.12 849 25.07 15.6 60 67 9.6 49.2
02:50 1020 30.12 849 25.07 15.7 60.2 67 9.6 49.3
02:55 1020 30.12 849 25.07 15.5 60 67 9.4 49
03:00 1020 30.12 849 25.07 15.5 59.9 65 9.1 48.5
03:05 1020 30.12 849 25.07 15.7 60.3 65 9.2 48.5
03:10 1020 30.12 849 25.07 15.7 60.3 66 9.4 48.8
03:15 1020 30.12 849 25.07 15.6 60 67 9.5 49.1
03:20 1020 30.12 849 25.07 15.2 59.3 68 9.4 49
03:25 1020 30.12 849 25.07 14.8 58.6 70 9.3 48.8
03:30 1020 30.12 850 25.1 14.5 58 71 9.3 48.7
03:35 1020 30.12 850 25.1 14.5 58 71 9.4 48.9
03:40 1020 30.12 850 25.1 14.4 57.8 71 9.3 48.7
03:45 1020 30.12 850 25.1 14.4 57.9 71 9.2 48.5
03:50 1020 30.12 850 25.1 14.3 57.8 70 9.1 48.3
03:55 1020 30.12 850 25.1 14.1 57.3 72 9.2 48.5
04:00 1020 30.12 850 25.1 13.8 56.9 73 9.1 48.3
04:05 1021 30.15 850 25.1 13.7 56.7 73 9 48.3
04:10 1021 30.15 850 25.1 13.4 56.2 74 8.9 48.1
04:15 1021 30.15 850 25.1 13.2 55.8 75 9 48.2
04:20 1021 30.15 850 25.1 13 55.3 77 9 48.2
04:25 1021 30.15 850 25.1 12.8 55.1 76 8.8 47.9
04:30 1021 30.15 850 25.1 12.8 55 76 8.8 47.8
04:35 1021 30.15 850 25.1 13 55.4 75 8.7 47.7
04:40 1021 30.15 850 25.1 13 55.5 75 8.7 47.6
04:45 1021 30.15 850 25.1 13.1 55.6 74 8.5 47.4
04:50 1021 30.15 850 25.1 13.2 55.8 74 8.7 47.6
04:55 1021 30.15 850 25.1 13.2 55.8 73 8.5 47.3
05:00 1021 30.15 850 25.1 13.8 56.9 72 8.8 47.8
05:05 1021 30.15 850 25.1 13.9 57 71 8.9 47.9
05:10 1021 30.15 850 25.1 13.8 56.9 72 9 48.1
05:15 1021 30.15 850 25.1 13.6 56.5 73 8.8 47.9
05:20 1021 30.15 850 25.1 13.4 56.2 74 8.9 48
05:25 1021 30.15 850 25.1 13.2 55.7 75 8.8 47.8
05:30 1021 30.15 850 25.1 13.1 55.5 75 8.8 47.8
05:35 1021 30.15 850 25.1 13.3 55.9 73 8.6 47.5
05:40 1021 30.15 850 25.1 13.4 56.2 73 8.8 47.8
05:45 1021 30.15 850 25.1 13.5 56.3 72 8.6 47.4
05:50 1021 30.15 850 25.1 13.5 56.3 70 8.3 46.9
05:55 1021 30.15 850 25.1 13.5 56.3 72 8.6 47.6
06:00 1021 30.15 850 25.1 13.2 55.8 73 8.6 47.4
06:05 1021 30.15 850 25.1 13.5 56.2 72 8.5 47.3
06:10 1021 30.15 850 25.1 13.5 56.4 73 8.8 47.9
06:15 1021 30.15 850 25.1 13.5 56.2 73 8.8 47.9
06:20 1021 30.15 850 25.1 13.6 56.4 72 8.7 47.7
06:25 1021 30.15 850 25.1 13.8 56.8 70 8.4 47.1
06:30 1021 30.15 850 25.1 14.1 57.5 70 8.9 48
06:35 1021 30.15 850 25.1 14.5 58 69 9 48.2
06:40 1021 30.15 850 25.1 14.5 58.1 69 9 48.3
06:45 1021 30.15 850 25.1 14.8 58.6 68 9 48.2
06:50 1021 30.15 850 25.1 15.1 59.3 68 9.3 48.7
06:55 1021 30.15 850 25.1 15.2 59.4 67 9.1 48.4
07:00 1021 30.15 850 25.1 15.4 59.7 67 9.3 48.8
07:05 1021 30.15 850 25.1 15.5 59.8 66 9.2 48.6
07:10 1021 30.15 850 25.1 16.2 61.2 63 9.3 48.7
07:15 1021 30.15 850 25.1 16.8 62.2 62 9.6 49.2
07:20 1021 30.15 850 25.1 17 62.7 62 9.7 49.5
07:25 1021 30.15 850 25.1 17.2 63 61 9.6 49.4
07:30 1021 30.15 850 25.1 17.6 63.6 59 9.6 49.3
07:35 1021 30.15 850 25.1 17.9 64.2 59 9.8 49.6
07:40 1021 30.15 850 25.1 18.5 65.2 56 9.5 49.1
07:45 1021 30.15 850 25.1 18.6 65.5 55 9.6 49.3
07:50 1021 30.15 850 25.1 19.2 66.5 55 10 50.1
07:55 1021 30.15 850 25.1 19.4 66.9 53 9.7 49.5
08:00 1021 30.15 850 25.1 19.6 67.2 52 9.7 49.4
08:05 1021 30.15 850 25.1 20.2 68.3 50 9.5 49.1
08:10 1021 30.15 850 25.1 20.3 68.5 51 10 50
08:15 1021 30.15 850 25.1 20.5 68.8 49 9.4 49
08:20 1021 30.15 850 25.1 21.1 69.9 49 10 50.1
08:25 1021 30.15 850 25.1 21.1 69.9 47 9.5 49.2
08:30 1021 30.15 850 25.1 21.2 70.2 48 10 50
08:35 1021 30.15 850 25.1 21.8 71.2 46 9.9 49.8
08:40 1021 30.15 850 25.1 22.2 72 46 10.2 50.3
08:45 1021 30.15 850 25.1 21.9 71.5 46 10 50
08:50 1021 30.15 850 25.1 21.5 70.7 47 9.9 49.8
08:55 1021 30.15 850 25.1 22.1 71.8 46 10 50
09:00 1021 30.15 850 25.1 22.2 72 46 10.1 50.2
09:05 1021 30.15 850 25.1 22.6 72.6 44 9.8 49.6
09:10 1021 30.15 850 25.1 23 73.3 44 10.2 50.3
09:15 1021 30.15 850 25.1 22.4 72.4 45 9.9 49.9
09:20 1021 30.15 850 25.1 23.1 73.5 44 10.3 50.5
09:25 1021 30.15 850 25.1 23.3 73.9 45 10.7 51.3
09:30 1021 30.15 850 25.1 22.3 72.1 45 9.8 49.6
09:35 1021 30.15 850 25.1 23.1 73.6 44 10.3 50.5
09:40 1021 30.15 850 25.1 23.5 74.3 42 10.2 50.4
09:45 1021 30.15 850 25.1 23.1 73.5 44 10.4 50.7
09:50 1021 30.15 850 25.1 23.6 74.6 41 10 50
09:55 1021 30.15 850 25.1 24.5 76 41 10.7 51.2
10:00 1021 30.15 850 25.1 23.8 74.9 43 10.7 51.2
10:05 1021 30.15 850 25.1 24.4 75.9 40 10.3 50.6
10:10 1021 30.15 850 25.1 24.9 76.7 38 9.9 49.8
10:15 1021 30.15 850 25.1 24.5 76 42 10.9 51.6
10:20 1021 30.15 850 25.1 24.1 75.5 43 11 51.7
10:25 1021 30.15 850 25.1 24.3 75.7 41 10.4 50.8
10:30 1021 30.15 850 25.1 24.7 76.5 39 10.2 50.3
10:35 1021 30.15 850 25.1 25.2 77.3 39 10.5 50.9
10:40 1020 30.12 850 25.1 24.6 76.2 40 10.4 50.8
10:45 1020 30.12 850 25.1 25.3 77.5 36 9.4 48.8
10:50 1020 30.12 850 25.1 25.3 77.5 37 9.7 49.4
10:55 1020 30.12 849 25.07 26 78.7 36 9.9 49.7
11:00 1020 30.12 849 25.07 26.3 79.3 35 10 50
11:05 1020 30.12 849 25.07 26.1 79 36 9.9 49.9
11:10 1020 30.12 849 25.07 25.6 78.1 38 10.4 50.7
11:15 1020 30.12 849 25.07 25.1 77.2 36 9.3 48.7
11:20 1020 30.12 849 25.07 26 78.8 35 9.6 49.3
11:25 1020 30.12 849 25.07 26.4 79.5 34 9.7 49.5
11:30 1020 30.12 849 25.07 26.3 79.4 34 9.5 49
11:35 1020 30.12 849 25.07 26.4 79.5 33 9 48.2
11:40 1020 30.12 849 25.07 26 78.8 34 9.1 48.4
11:45 1020 30.12 849 25.07 26.1 79.1 33 9 48.2
11:50 1020 30.12 849 25.07 27.2 80.9 31 8.7 47.7
11:55 1020 30.12 849 25.07 27.1 80.8 33 9.9 49.8
12:00 1019 30.09 849 25.07 27.2 80.9 33 9.6 49.4
12:05 1019 30.09 849 25.07 27.1 80.8 32 9.5 49
12:10 1019 30.09 849 25.07 27.2 80.9 31 8.7 47.6
12:15 1019 30.09 849 25.07 28.3 82.9 31 9.8 49.7
12:20 1019 30.09 849 25.07 27.4 81.4 31 9 48.2
12:25 1019 30.09 848 25.04 26.9 80.5 31 8.5 47.3
12:30 1019 30.09 849 25.07 26.6 79.8 33 9.3 48.7
12:35 1020 30.12 849 25.07 25.4 77.7 40 11.1 51.9
12:40 1020 30.12 849 25.07 24.4 76 37 9.2 48.6
12:45 1020 30.12 849 25.07 24.3 75.7 32 6.7 44.1
12:50 1019 30.09 849 25.07 24.8 76.6 30 6.2 43.1
12:55 1019 30.09 849 25.07 25.1 77.3 28 5.6 42.1
13:00 1019 30.09 848 25.04 25.9 78.5 26 5 41.1
13:05 1019 30.09 848 25.04 27.4 81.4 24 5.5 41.9
13:10 1019 30.09 848 25.04 27.3 81.1 23 4.5 40
13:15 1019 30.09 848 25.04 27.3 81.1 22 3.8 38.8
13:20 1019 30.09 848 25.04 26.9 80.5 23 4.4 40
13:25 1019 30.09 848 25.04 26.7 80 23 3.9 39
13:30 1019 30.09 848 25.04 27.1 80.8 21 3 37.4
13:35 1019 30.09 848 25.04 27.3 81.1 24 5.3 41.6
13:40 1019 30.09 848 25.04 25.7 78.3 25 4.5 40
13:45 1019 30.09 848 25.04 25.7 78.2 23 3.2 37.7
13:50 1019 30.09 848 25.04 25.6 78.1 30 7.1 44.7
13:55 1019 30.09 848 25.04 25 77 33 7.9 46.3
14:00 1019 30.09 848 25.04 24.6 76.3 33 7.4 45.3
14:05 1020 30.12 849 25.07 24.5 76.1 35 8.1 46.5
14:10 1019 30.09 849 25.07 24.3 75.7 45 11.9 53.4
14:15 1020 30.12 849 25.07 23.2 73.8 47 11.5 52.7
14:20 1020 30.12 850 25.1 22 71.6 49 11 51.8
14:25 1021 30.15 850 25.1 21.5 70.6 50 10.9 51.5
14:30 1020 30.12 850 25.1 20.9 69.6 54 11.3 52.3
14:35 1021 30.15 850 25.1 19.6 67.4 58 11.1 52.1
14:40 1021 30.15 850 25.1 19.2 66.5 58 10.8 51.5
14:45 1021 30.15 850 25.1 18.8 65.8 56 9.9 49.9
14:50 1021 30.15 850 25.1 18.9 65.9 55 9.7 49.4
14:55 1021 30.15 850 25.1 19.7 67.4 52 9.6 49.3
15:00 1021 30.15 850 25.1 20 68.1 52 10 50
15:05 1021 30.15 850 25.1 20 67.9 52 10 50
15:10 1020 30.12 849 25.07 20.6 69.1 51 10.3 50.6
15:15 1020 30.12 849 25.07 21 69.9 46 9.2 48.6
15:20 1020 30.12 850 25.1 21 69.7 49 10.1 50.1
15:25 1021 30.15 850 25.1 20.2 68.4 53 10.4 50.7
15:30 1021 30.15 850 25.1 19.6 67.4 54 10.3 50.5
15:35 1021 30.15 850 25.1 19.7 67.5 53 10 49.9
15:40 1021 30.15 850 25.1 19.9 67.8 52 9.9 49.9
15:45 1021 30.15 850 25.1 20 68 51 9.8 49.7
15:50 1021 30.15 850 25.1 20.3 68.5 48 9.1 48.3
15:55 1021 30.15 850 25.1 20.5 68.9 49 9.7 49.4
16:00 1021 30.15 850 25.1 20.6 69.1 47 9 48.2
16:05 1021 30.15 850 25.1 21.1 69.9 46 9.2 48.5
16:10 1020 30.12 850 25.1 21 69.8 46 9.1 48.4
16:15 1020 30.12 850 25.1 21 69.7 46 9.2 48.5
16:20 1020 30.12 850 25.1 20.9 69.5 45 8.7 47.7
16:25 1020 30.12 849 25.07 20.8 69.4 46 8.8 47.8
16:30 1020 30.12 849 25.07 21 69.9 44 8.4 47.1
16:35 1020 30.12 849 25.07 21 69.8 46 9.2 48.6
16:40 1020 30.12 849 25.07 21.1 70 46 9.2 48.6
16:45 1020 30.12 849 25.07 21 69.7 46 9.2 48.5
16:50 1020 30.12 849 25.07 21.4 70.4 43 8.4 47.2
16:55 1020 30.12 849 25.07 22.3 72.1 39 7.8 46
17:00 1020 30.12 849 25.07 23 73.4 36 7.3 45.1
17:05 1020 30.12 849 25.07 23.3 73.9 37 7.8 46.1
17:10 1020 30.12 849 25.07 22.7 72.9 38 8 46.3
17:15 1020 30.12 849 25.07 22.3 72.1 40 8.1 46.7
17:20 1020 30.12 849 25.07 21.8 71.2 41 8.2 46.8
17:25 1020 30.12 849 25.07 21.6 70.8 42 8.4 47.1
17:30 1020 30.12 849 25.07 21.5 70.6 43 8.4 47.1
17:35 1020 30.12 849 25.07 21.4 70.4 43 8.6 47.4
17:40 1020 30.12 849 25.07 21.2 70.2 44 8.7 47.6
17:45 1019 30.09 849 25.07 21.3 70.4 43 8.3 46.9
17:50 1019 30.09 849 25.07 21.3 70.3 45 8.9 48
17:55 1019 30.09 848 25.04 21.3 70.3 44 8.8 47.8
18:00 1019 30.09 848 25.04 21.4 70.5 45 9.2 48.6
18:05 1019 30.09 848 25.04 21.3 70.4 46 9.4 49
18:10 1019 30.09 848 25.04 21.2 70.1 49 10.2 50.3
18:15 1019 30.09 848 25.04 21 69.8 50 10.4 50.8
18:20 1019 30.09 848 25.04 21 69.8 51 10.5 50.9
18:25 1019 30.09 848 25.04 21 69.8 51 10.7 51.3
18:30 1019 30.09 848 25.04 21 69.8 50 10.3 50.6
18:35 1019 30.09 848 25.04 21.1 69.9 49 10.2 50.3
18:40 1019 30.09 848 25.04 21 69.8 50 10.2 50.4
18:45 1019 30.09 848 25.04 21 69.8 51 10.7 51.3
18:50 1019 30.09 848 25.04 20.9 69.6 51 10.4 50.7
18:55 1019 30.09 848 25.04 20.7 69.3 50 10.1 50.1
19:00 1019 30.09 848 25.04 20.6 69.1 52 10.7 51.2
19:05 1019 30.09 848 25.04 20.5 68.8 52 10.4 50.7
19:10 1019 30.09 848 25.04 20.4 68.7 51 10.1 50.2
19:15 1019 30.09 848 25.04 20.3 68.6 53 10.6 51.1
19:20 1019 30.09 848 25.04 20 68 53 10.4 50.6
19:25 1019 30.09 848 25.04 19.9 67.8 53 10.1 50.2
19:30 1019 30.09 848 25.04 19.8 67.7 54 10.3 50.6
19:35 1019 30.09 848 25.04 19.7 67.4 55 10.5 50.8
19:40 1019 30.09 848 25.04 19.6 67.2 54 10.1 50.2
19:45 1019 30.09 849 25.07 19.5 67.1 53 9.7 49.5
19:50 1019 30.09 849 25.07 19.4 67 53 9.8 49.6
19:55 1019 30.09 849 25.07 19.4 66.9 53 9.8 49.6
20:00 1019 30.09 849 25.07 19.3 66.7 54 9.8 49.6
20:05 1019 30.09 848 25.04 19.2 66.6 54 9.9 49.9
20:10 1019 30.09 848 25.04 19.1 66.4 55 10.1 50.1
20:15 1019 30.09 849 25.07 19 66.3 55 9.9 49.7
20:20 1019 30.09 849 25.07 19.1 66.4 54 9.7 49.4
20:25 1019 30.09 849 25.07 19.2 66.5 53 9.5 49.1
20:30 1020 30.12 849 25.07 19.2 66.6 53 9.5 49.1
20:35 1020 30.12 849 25.07 19.2 66.5 53 9.6 49.3
20:40 1020 30.12 849 25.07 19 66.2 55 9.8 49.7
20:45 1020 30.12 849 25.07 19 66.2 56 10.1 50.2
20:50 1020 30.12 849 25.07 19 66.2 57 10.5 50.8
20:55 1020 30.12 849 25.07 18.9 66 59 10.7 51.3
21:00 1020 30.12 849 25.07 18.8 65.8 59 10.8 51.5
21:05 1020 30.12 850 25.1 18.6 65.5 62 11.3 52.3
21:10 1020 30.12 850 25.1 18.2 64.7 65 11.6 52.8
21:15 1020 30.12 850 25.1 17.7 63.9 66 11.4 52.6
21:20 1021 30.15 850 25.1 17.7 63.8 65 11 51.9
21:25 1021 30.15 850 25.1 17.8 64 65 11.2 52.1
21:30 1021 30.15 850 25.1 17.9 64.3 65 11.4 52.5
21:35 1021 30.15 850 25.1 17.9 64.2 65 11.4 52.5
21:40 1021 30.15 850 25.1 17.8 64.1 66 11.6 52.9
21:45 1021 30.15 850 25.1 17.5 63.5 69 11.9 53.4
21:50 1021 30.15 850 25.1 17.2 62.9 70 11.8 53.3
21:55 1021 30.15 850 25.1 17.1 62.7 71 11.8 53.3
22:00 1021 30.15 850 25.1 17 62.6 72 11.9 53.4
22:05 1021 30.15 850 25.1 16.8 62.2 73 11.9 53.4
22:10 1021 30.15 850 25.1 16.7 62 72 11.8 53.2
22:15 1021 30.15 850 25.1 16.7 62 72 11.7 53
22:20 1021 30.15 850 25.1 16.6 62 72 11.6 52.8
22:25 1021 30.15 850 25.1 16.5 61.8 72 11.6 52.8
22:30 1021 30.15 850 25.1 16.5 61.7 72 11.5 52.6
22:35 1021 30.15 851 25.13 16.6 61.9 71 11.4 52.5
22:40 1021 30.15 851 25.13 16.7 62.1 70 11.2 52.2
22:45 1021 30.15 851 25.13 16.9 62.4 69 11.2 52.1
22:50 1021 30.15 851 25.13 16.9 62.3 69 11.2 52.1
22:55 1022 30.18 851 25.13 16.9 62.4 69 11.2 52.2
23:00 1022 30.18 851 25.13 16.9 62.5 68 11 51.9
23:05 1022 30.18 851 25.13 16.8 62.3 65 10.4 50.7
23:10 1022 30.18 851 25.13 16.9 62.4 65 10.3 50.5
23:15 1022 30.18 851 25.13 16.9 62.4 66 10.7 51.2
23:20 1022 30.18 851 25.13 16.8 62.2 66 10.5 51
23:25 1022 30.18 851 25.13 16.8 62.2 66 10.5 51
23:30 1022 30.18 851 25.13 16.7 62.1 67 10.6 51
23:35 1022 30.18 851 25.13 16.7 62 66 10.4 50.8
23:40 1022 30.18 851 25.13 16.4 61.6 68 10.5 51
23:45 1022 30.18 852 25.16 16.2 61.1 69 10.6 51
23:50 1022 30.18 852 25.16 16 60.7 71 10.7 51.2
23:55 1022 30.18 852 25.16 15.8 60.4 72 10.7 51.3
24:00 1022 30.18 852 25.16 15.7 60.2 73 10.8 51.5